Terminal Aerodrome Forecast
Issued by NWS

Home | Current Version | Previous Version | Text Only | Print | Product List | Glossary On
Versions: 1 2 3 4 5 6 7 8 9 10 11 12 13 14 15 16 17 18 19 20 21 22 23 24 25 26 27 28 29 30 31 32 33 34 35
961
FTUS46 KMTR 230520
TAFSFO
TAF
KSFO 230520Z 2306/2412 20010KT P6SM -SHRA BKN040
     FM231200 19008KT P6SM VCSH BKN050
     FM232000 27010KT P6SM VCSH BKN040
     FM240600 19010KT P6SM -SHRA BKN030=

USA.gov is the U.S. government's official web portal to all federal, state and local government web resources and services.